sensor_id;sensor_type;location;lat;lon;timestamp;P1;durP1;ratioP1;P2;durP2;ratioP2
13079;SDS011;6606;49.154;9.280;2022-07-06T00:02:12;2.77;;;2.57;;
13079;SDS011;6606;49.154;9.280;2022-07-06T00:04:39;4.00;;;2.57;;
13079;SDS011;6606;49.154;9.280;2022-07-06T00:07:05;2.93;;;2.50;;
13079;SDS011;6606;49.154;9.280;2022-07-06T00:09:33;3.73;;;2.60;;
13079;SDS011;6606;49.154;9.280;2022-07-06T00:12:00;4.60;;;2.80;;
13079;SDS011;6606;49.154;9.280;2022-07-06T00:14:26;4.00;;;2.47;;
13079;SDS011;6606;49.154;9.280;2022-07-06T00:16:53;5.23;;;2.63;;
13079;SDS011;6606;49.154;9.280;2022-07-06T00:19:21;4.00;;;2.67;;
13079;SDS011;6606;49.154;9.280;2022-07-06T00:21:48;3.07;;;2.70;;
13079;SDS011;6606;49.154;9.280;2022-07-06T00:24:14;5.07;;;3.00;;
13079;SDS011;6606;49.154;9.280;2022-07-06T00:26:43;3.40;;;2.30;;
13079;SDS011;6606;49.154;9.280;2022-07-06T00:29:10;2.80;;;2.30;;
13079;SDS011;6606;49.154;9.280;2022-07-06T00:31:37;3.67;;;2.27;;
13079;SDS011;6606;49.154;9.280;2022-07-06T00:34:03;2.87;;;2.50;;
13079;SDS011;6606;49.154;9.280;2022-07-06T00:36:31;2.93;;;2.60;;
13079;SDS011;6606;49.154;9.280;2022-07-06T00:38:58;3.20;;;2.57;;
13079;SDS011;6606;49.154;9.280;2022-07-06T00:41:25;3.30;;;2.73;;
13079;SDS011;6606;49.154;9.280;2022-07-06T00:43:54;3.73;;;2.47;;
13079;SDS011;6606;49.154;9.280;2022-07-06T00:46:22;2.60;;;2.30;;
13079;SDS011;6606;49.154;9.280;2022-07-06T00:48:53;3.17;;;2.50;;
13079;SDS011;6606;49.154;9.280;2022-07-06T00:51:21;3.90;;;2.77;;
13079;SDS011;6606;49.154;9.280;2022-07-06T00:53:52;3.60;;;2.80;;
13079;SDS011;6606;49.154;9.280;2022-07-06T00:56:21;3.60;;;2.57;;
13079;SDS011;6606;49.154;9.280;2022-07-06T00:58:48;2.97;;;2.50;;
13079;SDS011;6606;49.154;9.280;2022-07-06T01:01:15;2.90;;;2.60;;
13079;SDS011;6606;49.154;9.280;2022-07-06T01:03:41;9.23;;;3.00;;
13079;SDS011;6606;49.154;9.280;2022-07-06T01:06:08;3.67;;;2.93;;
13079;SDS011;6606;49.154;9.280;2022-07-06T01:08:35;3.57;;;3.27;;
13079;SDS011;6606;49.154;9.280;2022-07-06T01:11:03;3.60;;;2.60;;
13079;SDS011;6606;49.154;9.280;2022-07-06T01:13:30;3.80;;;3.10;;
13079;SDS011;6606;49.154;9.280;2022-07-06T01:15:59;4.27;;;2.90;;
13079;SDS011;6606;49.154;9.280;2022-07-06T01:18:26;4.20;;;3.00;;
13079;SDS011;6606;49.154;9.280;2022-07-06T01:21:05;3.00;;;2.70;;
13079;SDS011;6606;49.154;9.280;2022-07-06T01:23:37;4.33;;;2.87;;
13079;SDS011;6606;49.154;9.280;2022-07-06T01:26:05;5.10;;;3.43;;
13079;SDS011;6606;49.154;9.280;2022-07-06T01:28:32;3.50;;;3.20;;
13079;SDS011;6606;49.154;9.280;2022-07-06T01:30:58;3.50;;;3.10;;
13079;SDS011;6606;49.154;9.280;2022-07-06T01:33:25;3.57;;;3.07;;
13079;SDS011;6606;49.154;9.280;2022-07-06T01:35:52;6.40;;;3.23;;
13079;SDS011;6606;49.154;9.280;2022-07-06T01:38:20;4.60;;;3.27;;
13079;SDS011;6606;49.154;9.280;2022-07-06T01:40:46;3.63;;;3.03;;
13079;SDS011;6606;49.154;9.280;2022-07-06T01:43:13;5.53;;;3.07;;
13079;SDS011;6606;49.154;9.280;2022-07-06T01:45:41;4.27;;;3.47;;
13079;SDS011;6606;49.154;9.280;2022-07-06T01:48:08;3.37;;;3.07;;
13079;SDS011;6606;49.154;9.280;2022-07-06T01:50:34;3.80;;;3.20;;
13079;SDS011;6606;49.154;9.280;2022-07-06T01:53:01;3.80;;;2.90;;
13079;SDS011;6606;49.154;9.280;2022-07-06T01:55:30;3.83;;;3.13;;
13079;SDS011;6606;49.154;9.280;2022-07-06T01:57:57;4.93;;;3.17;;
13079;SDS011;6606;49.154;9.280;2022-07-06T02:00:25;3.50;;;3.20;;
13079;SDS011;6606;49.154;9.280;2022-07-06T02:02:52;5.20;;;3.77;;
13079;SDS011;6606;49.154;9.280;2022-07-06T02:05:18;4.00;;;3.40;;
13079;SDS011;6606;49.154;9.280;2022-07-06T02:07:45;4.07;;;2.93;;
13079;SDS011;6606;49.154;9.280;2022-07-06T02:10:13;3.60;;;2.83;;
13079;SDS011;6606;49.154;9.280;2022-07-06T02:12:42;3.53;;;3.20;;
13079;SDS011;6606;49.154;9.280;2022-07-06T02:15:09;3.80;;;3.10;;
13079;SDS011;6606;49.154;9.280;2022-07-06T02:17:38;4.23;;;3.20;;
13079;SDS011;6606;49.154;9.280;2022-07-06T02:20:05;3.50;;;3.20;;
13079;SDS011;6606;49.154;9.280;2022-07-06T02:22:32;4.93;;;3.57;;
13079;SDS011;6606;49.154;9.280;2022-07-06T02:24:59;4.63;;;3.17;;
13079;SDS011;6606;49.154;9.280;2022-07-06T02:27:26;3.73;;;3.20;;
13079;SDS011;6606;49.154;9.280;2022-07-06T02:29:54;4.47;;;2.90;;
13079;SDS011;6606;49.154;9.280;2022-07-06T02:32:21;5.63;;;3.50;;
13079;SDS011;6606;49.154;9.280;2022-07-06T02:34:49;6.67;;;3.80;;
13079;SDS011;6606;49.154;9.280;2022-07-06T02:37:16;5.07;;;3.70;;
13079;SDS011;6606;49.154;9.280;2022-07-06T02:39:43;6.13;;;3.60;;
13079;SDS011;6606;49.154;9.280;2022-07-06T02:42:11;4.03;;;3.33;;
13079;SDS011;6606;49.154;9.280;2022-07-06T02:44:37;5.10;;;3.40;;
13079;SDS011;6606;49.154;9.280;2022-07-06T02:47:05;5.30;;;3.33;;
13079;SDS011;6606;49.154;9.280;2022-07-06T02:49:33;6.70;;;3.60;;
13079;SDS011;6606;49.154;9.280;2022-07-06T02:52:00;4.40;;;3.50;;
13079;SDS011;6606;49.154;9.280;2022-07-06T02:54:27;5.03;;;3.80;;
13079;SDS011;6606;49.154;9.280;2022-07-06T02:56:54;5.73;;;3.53;;
13079;SDS011;6606;49.154;9.280;2022-07-06T02:59:21;5.07;;;3.40;;
13079;SDS011;6606;49.154;9.280;2022-07-06T03:01:48;4.47;;;3.50;;
13079;SDS011;6606;49.154;9.280;2022-07-06T03:04:17;5.23;;;3.60;;
13079;SDS011;6606;49.154;9.280;2022-07-06T03:06:44;4.33;;;3.23;;
13079;SDS011;6606;49.154;9.280;2022-07-06T03:09:12;6.43;;;3.37;;
13079;SDS011;6606;49.154;9.280;2022-07-06T03:11:39;4.60;;;3.87;;
13079;SDS011;6606;49.154;9.280;2022-07-06T03:14:07;5.43;;;3.80;;
13079;SDS011;6606;49.154;9.280;2022-07-06T03:16:36;5.10;;;3.30;;
13079;SDS011;6606;49.154;9.280;2022-07-06T03:19:03;4.67;;;3.40;;
13079;SDS011;6606;49.154;9.280;2022-07-06T03:21:31;5.57;;;3.60;;
13079;SDS011;6606;49.154;9.280;2022-07-06T03:24:00;4.40;;;3.50;;
13079;SDS011;6606;49.154;9.280;2022-07-06T03:26:26;5.87;;;2.97;;
13079;SDS011;6606;49.154;9.280;2022-07-06T03:28:54;5.80;;;3.47;;
13079;SDS011;6606;49.154;9.280;2022-07-06T03:31:20;5.03;;;3.63;;
13079;SDS011;6606;49.154;9.280;2022-07-06T03:33:47;5.83;;;3.93;;
13079;SDS011;6606;49.154;9.280;2022-07-06T03:36:14;6.63;;;3.47;;
13079;SDS011;6606;49.154;9.280;2022-07-06T03:38:43;4.13;;;3.30;;
13079;SDS011;6606;49.154;9.280;2022-07-06T03:41:10;4.33;;;3.47;;
13079;SDS011;6606;49.154;9.280;2022-07-06T03:43:37;6.57;;;3.70;;
13079;SDS011;6606;49.154;9.280;2022-07-06T03:46:03;4.87;;;3.23;;
13079;SDS011;6606;49.154;9.280;2022-07-06T03:48:30;5.67;;;3.60;;
13079;SDS011;6606;49.154;9.280;2022-07-06T03:50:57;4.63;;;3.67;;
13079;SDS011;6606;49.154;9.280;2022-07-06T03:53:24;5.97;;;3.60;;
13079;SDS011;6606;49.154;9.280;2022-07-06T03:55:53;6.13;;;3.73;;
13079;SDS011;6606;49.154;9.280;2022-07-06T03:58:38;5.53;;;3.60;;
13079;SDS011;6606;49.154;9.280;2022-07-06T04:01:05;4.80;;;3.30;;
13079;SDS011;6606;49.154;9.280;2022-07-06T04:03:33;4.40;;;3.37;;
13079;SDS011;6606;49.154;9.280;2022-07-06T04:06:00;5.83;;;3.40;;
13079;SDS011;6606;49.154;9.280;2022-07-06T04:08:26;5.00;;;3.37;;
13079;SDS011;6606;49.154;9.280;2022-07-06T04:10:57;3.80;;;3.00;;
13079;SDS011;6606;49.154;9.280;2022-07-06T04:13:24;4.60;;;2.93;;
13079;SDS011;6606;49.154;9.280;2022-07-06T04:15:51;4.97;;;2.87;;
13079;SDS011;6606;49.154;9.280;2022-07-06T04:18:18;2.93;;;2.40;;
13079;SDS011;6606;49.154;9.280;2022-07-06T04:20:49;3.03;;;2.73;;
13079;SDS011;6606;49.154;9.280;2022-07-06T04:23:17;3.90;;;2.97;;
13079;SDS011;6606;49.154;9.280;2022-07-06T04:25:44;4.60;;;3.00;;
13079;SDS011;6606;49.154;9.280;2022-07-06T04:28:12;4.00;;;3.20;;
13079;SDS011;6606;49.154;9.280;2022-07-06T04:30:39;4.40;;;2.67;;
13079;SDS011;6606;49.154;9.280;2022-07-06T04:33:10;3.97;;;3.53;;
13079;SDS011;6606;49.154;9.280;2022-07-06T04:35:39;6.00;;;3.00;;
13079;SDS011;6606;49.154;9.280;2022-07-06T04:38:06;3.27;;;2.87;;
13079;SDS011;6606;49.154;9.280;2022-07-06T04:40:33;4.03;;;2.90;;
13079;SDS011;6606;49.154;9.280;2022-07-06T04:43:04;3.53;;;3.07;;
13079;SDS011;6606;49.154;9.280;2022-07-06T04:45:34;5.47;;;3.20;;
13079;SDS011;6606;49.154;9.280;2022-07-06T04:48:00;2.83;;;2.60;;
13079;SDS011;6606;49.154;9.280;2022-07-06T04:50:27;3.97;;;2.83;;
13079;SDS011;6606;49.154;9.280;2022-07-06T04:52:58;4.23;;;2.93;;
13079;SDS011;6606;49.154;9.280;2022-07-06T04:55:25;3.63;;;2.60;;
13079;SDS011;6606;49.154;9.280;2022-07-06T04:57:52;6.13;;;3.37;;
13079;SDS011;6606;49.154;9.280;2022-07-06T05:00:19;4.27;;;2.90;;
13079;SDS011;6606;49.154;9.280;2022-07-06T05:02:49;3.30;;;2.50;;
13079;SDS011;6606;49.154;9.280;2022-07-06T05:05:17;4.87;;;2.90;;
13079;SDS011;6606;49.154;9.280;2022-07-06T05:07:45;2.90;;;2.40;;
13079;SDS011;6606;49.154;9.280;2022-07-06T05:10:12;4.20;;;2.80;;
13079;SDS011;6606;49.154;9.280;2022-07-06T05:12:42;6.30;;;2.97;;
13079;SDS011;6606;49.154;9.280;2022-07-06T05:15:10;2.73;;;2.43;;
13079;SDS011;6606;49.154;9.280;2022-07-06T05:17:36;5.03;;;2.70;;
13079;SDS011;6606;49.154;9.280;2022-07-06T05:20:06;3.83;;;2.70;;
13079;SDS011;6606;49.154;9.280;2022-07-06T05:22:37;3.85;;;2.25;;
13079;SDS011;6606;49.154;9.280;2022-07-06T05:25:04;5.55;;;2.50;;
13079;SDS011;6606;49.154;9.280;2022-07-06T05:27:31;4.10;;;2.70;;
13079;SDS011;6606;49.154;9.280;2022-07-06T05:29:58;4.00;;;2.55;;
13079;SDS011;6606;49.154;9.280;2022-07-06T05:32:25;6.68;;;2.50;;
13079;SDS011;6606;49.154;9.280;2022-07-06T05:34:51;5.18;;;2.97;;
13079;SDS011;6606;49.154;9.280;2022-07-06T05:37:21;6.90;;;2.70;;
13079;SDS011;6606;49.154;9.280;2022-07-06T05:39:48;6.47;;;2.63;;
13079;SDS011;6606;49.154;9.280;2022-07-06T05:42:15;5.22;;;2.85;;
13079;SDS011;6606;49.154;9.280;2022-07-06T05:44:42;7.68;;;2.63;;
13079;SDS011;6606;49.154;9.280;2022-07-06T05:47:09;6.72;;;2.75;;
13079;SDS011;6606;49.154;9.280;2022-07-06T05:49:53;7.85;;;2.70;;
13079;SDS011;6606;49.154;9.280;2022-07-06T05:52:44;5.97;;;2.60;;
13079;SDS011;6606;49.154;9.280;2022-07-06T05:55:21;7.90;;;2.75;;
13079;SDS011;6606;49.154;9.280;2022-07-06T05:57:49;6.10;;;2.40;;
13079;SDS011;6606;49.154;9.280;2022-07-06T06:00:17;6.70;;;2.53;;
13079;SDS011;6606;49.154;9.280;2022-07-06T06:02:50;5.18;;;2.53;;
13079;SDS011;6606;49.154;9.280;2022-07-06T06:05:18;5.30;;;2.50;;
13079;SDS011;6606;49.154;9.280;2022-07-06T06:07:48;4.57;;;2.25;;
13079;SDS011;6606;49.154;9.280;2022-07-06T06:10:17;6.28;;;3.17;;
13079;SDS011;6606;49.154;9.280;2022-07-06T06:12:50;5.43;;;2.50;;
13079;SDS011;6606;49.154;9.280;2022-07-06T06:15:18;4.22;;;2.63;;
13079;SDS011;6606;49.154;9.280;2022-07-06T06:17:45;4.35;;;2.15;;
13079;SDS011;6606;49.154;9.280;2022-07-06T06:20:12;6.00;;;2.38;;
13079;SDS011;6606;49.154;9.280;2022-07-06T06:22:44;6.10;;;2.40;;
13079;SDS011;6606;49.154;9.280;2022-07-06T06:25:14;4.88;;;2.25;;
13079;SDS011;6606;49.154;9.280;2022-07-06T06:27:43;4.53;;;2.40;;
13079;SDS011;6606;49.154;9.280;2022-07-06T06:30:10;4.78;;;2.47;;
13079;SDS011;6606;49.154;9.280;2022-07-06T06:32:38;4.50;;;2.15;;
13079;SDS011;6606;49.154;9.280;2022-07-06T06:35:05;4.38;;;2.20;;
13079;SDS011;6606;49.154;9.280;2022-07-06T06:37:32;4.25;;;2.08;;
13079;SDS011;6606;49.154;9.280;2022-07-06T06:40:02;7.78;;;2.50;;
13079;SDS011;6606;49.154;9.280;2022-07-06T06:42:31;4.85;;;2.88;;
13079;SDS011;6606;49.154;9.280;2022-07-06T06:44:59;8.02;;;2.28;;
13079;SDS011;6606;49.154;9.280;2022-07-06T06:47:26;4.15;;;2.53;;
13079;SDS011;6606;49.154;9.280;2022-07-06T06:49:52;5.63;;;2.70;;
13079;SDS011;6606;49.154;9.280;2022-07-06T06:52:19;3.97;;;2.45;;
13079;SDS011;6606;49.154;9.280;2022-07-06T06:54:46;4.07;;;2.25;;
13079;SDS011;6606;49.154;9.280;2022-07-06T06:57:12;5.55;;;2.50;;
13079;SDS011;6606;49.154;9.280;2022-07-06T06:59:41;7.68;;;2.53;;
13079;SDS011;6606;49.154;9.280;2022-07-06T07:02:07;4.35;;;2.30;;
13079;SDS011;6606;49.154;9.280;2022-07-06T07:04:34;4.95;;;2.33;;
13079;SDS011;6606;49.154;9.280;2022-07-06T07:07:00;8.45;;;2.40;;
13079;SDS011;6606;49.154;9.280;2022-07-06T07:09:27;3.35;;;2.20;;
13079;SDS011;6606;49.154;9.280;2022-07-06T07:11:54;5.22;;;2.60;;
13079;SDS011;6606;49.154;9.280;2022-07-06T07:14:21;8.93;;;2.92;;
13079;SDS011;6606;49.154;9.280;2022-07-06T07:16:49;4.70;;;2.25;;
13079;SDS011;6606;49.154;9.280;2022-07-06T07:19:16;6.60;;;2.50;;
13079;SDS011;6606;49.154;9.280;2022-07-06T07:21:42;4.43;;;1.90;;
13079;SDS011;6606;49.154;9.280;2022-07-06T07:24:09;3.28;;;2.00;;
13079;SDS011;6606;49.154;9.280;2022-07-06T07:26:36;6.13;;;2.30;;
13079;SDS011;6606;49.154;9.280;2022-07-06T07:29:03;5.18;;;2.10;;
13079;SDS011;6606;49.154;9.280;2022-07-06T07:31:29;6.20;;;2.17;;
13079;SDS011;6606;49.154;9.280;2022-07-06T07:33:57;4.88;;;1.92;;
13079;SDS011;6606;49.154;9.280;2022-07-06T07:36:25;4.45;;;2.10;;
13079;SDS011;6606;49.154;9.280;2022-07-06T07:38:52;4.07;;;1.80;;
13079;SDS011;6606;49.154;9.280;2022-07-06T07:41:18;3.03;;;1.85;;
13079;SDS011;6606;49.154;9.280;2022-07-06T07:43:45;5.10;;;1.95;;
13079;SDS011;6606;49.154;9.280;2022-07-06T07:46:13;5.80;;;2.00;;
13079;SDS011;6606;49.154;9.280;2022-07-06T07:48:40;3.15;;;2.28;;
13079;SDS011;6606;49.154;9.280;2022-07-06T07:51:08;2.83;;;2.00;;
13079;SDS011;6606;49.154;9.280;2022-07-06T07:53:35;5.38;;;2.28;;
13079;SDS011;6606;49.154;9.280;2022-07-06T07:56:02;6.97;;;2.30;;
13079;SDS011;6606;49.154;9.280;2022-07-06T07:58:28;5.25;;;2.33;;
13079;SDS011;6606;49.154;9.280;2022-07-06T08:00:55;4.20;;;2.47;;
13079;SDS011;6606;49.154;9.280;2022-07-06T08:03:22;4.72;;;2.55;;
13079;SDS011;6606;49.154;9.280;2022-07-06T08:05:49;4.43;;;1.98;;
13079;SDS011;6606;49.154;9.280;2022-07-06T08:08:17;4.35;;;1.95;;
13079;SDS011;6606;49.154;9.280;2022-07-06T08:10:44;7.72;;;2.50;;
13079;SDS011;6606;49.154;9.280;2022-07-06T08:13:11;5.50;;;2.10;;
13079;SDS011;6606;49.154;9.280;2022-07-06T08:15:39;5.97;;;2.17;;
13079;SDS011;6606;49.154;9.280;2022-07-06T08:18:06;5.28;;;2.65;;
13079;SDS011;6606;49.154;9.280;2022-07-06T08:20:34;3.97;;;2.40;;
13079;SDS011;6606;49.154;9.280;2022-07-06T08:23:01;3.28;;;2.10;;
13079;SDS011;6606;49.154;9.280;2022-07-06T08:25:29;4.75;;;2.53;;
13079;SDS011;6606;49.154;9.280;2022-07-06T08:27:55;5.35;;;2.20;;
13079;SDS011;6606;49.154;9.280;2022-07-06T08:30:22;5.30;;;2.58;;
13079;SDS011;6606;49.154;9.280;2022-07-06T08:32:49;7.68;;;2.83;;
13079;SDS011;6606;49.154;9.280;2022-07-06T08:35:15;7.93;;;2.63;;
13079;SDS011;6606;49.154;9.280;2022-07-06T08:37:42;9.40;;;2.58;;
13079;SDS011;6606;49.154;9.280;2022-07-06T08:40:09;5.43;;;2.20;;
13079;SDS011;6606;49.154;9.280;2022-07-06T08:42:37;4.07;;;2.10;;
13079;SDS011;6606;49.154;9.280;2022-07-06T08:45:05;6.35;;;1.83;;
13079;SDS011;6606;49.154;9.280;2022-07-06T08:47:33;9.82;;;2.53;;
13079;SDS011;6606;49.154;9.280;2022-07-06T08:50:03;2.92;;;2.00;;
13079;SDS011;6606;49.154;9.280;2022-07-06T08:52:34;5.82;;;1.83;;
13079;SDS011;6606;49.154;9.280;2022-07-06T08:55:01;2.63;;;1.67;;
13079;SDS011;6606;49.154;9.280;2022-07-06T08:57:29;6.03;;;2.10;;
13079;SDS011;6606;49.154;9.280;2022-07-06T08:59:57;7.45;;;2.30;;
13079;SDS011;6606;49.154;9.280;2022-07-06T09:02:24;4.32;;;2.10;;
13079;SDS011;6606;49.154;9.280;2022-07-06T09:04:53;5.50;;;2.50;;
13079;SDS011;6606;49.154;9.280;2022-07-06T09:07:22;4.57;;;2.00;;
13079;SDS011;6606;49.154;9.280;2022-07-06T09:09:50;5.63;;;2.50;;
13079;SDS011;6606;49.154;9.280;2022-07-06T09:12:19;4.85;;;2.33;;
13079;SDS011;6606;49.154;9.280;2022-07-06T09:14:45;5.13;;;2.20;;
13079;SDS011;6606;49.154;9.280;2022-07-06T09:17:13;8.45;;;2.80;;
13079;SDS011;6606;49.154;9.280;2022-07-06T09:19:40;6.13;;;2.60;;
13079;SDS011;6606;49.154;9.280;2022-07-06T09:22:07;4.72;;;2.20;;
13079;SDS011;6606;49.154;9.280;2022-07-06T09:24:35;6.40;;;2.13;;
13079;SDS011;6606;49.154;9.280;2022-07-06T09:27:15;3.83;;;2.20;;
13079;SDS011;6606;49.154;9.280;2022-07-06T09:29:42;5.93;;;2.25;;
13079;SDS011;6606;49.154;9.280;2022-07-06T09:32:08;4.53;;;2.33;;
13079;SDS011;6606;49.154;9.280;2022-07-06T09:34:43;5.38;;;2.00;;
13079;SDS011;6606;49.154;9.280;2022-07-06T09:37:11;2.88;;;1.95;;
13079;SDS011;6606;49.154;9.280;2022-07-06T09:39:38;4.45;;;2.30;;
13079;SDS011;6606;49.154;9.280;2022-07-06T09:42:05;4.28;;;2.10;;
13079;SDS011;6606;49.154;9.280;2022-07-06T09:44:34;2.28;;;2.00;;
13079;SDS011;6606;49.154;9.280;2022-07-06T09:47:03;4.50;;;2.03;;
13079;SDS011;6606;49.154;9.280;2022-07-06T09:49:32;4.32;;;2.08;;
13079;SDS011;6606;49.154;9.280;2022-07-06T09:52:01;2.95;;;2.10;;
13079;SDS011;6606;49.154;9.280;2022-07-06T09:54:28;5.85;;;2.40;;
13079;SDS011;6606;49.154;9.280;2022-07-06T09:56:56;5.32;;;2.10;;
13079;SDS011;6606;49.154;9.280;2022-07-06T09:59:24;4.82;;;2.10;;
13079;SDS011;6606;49.154;9.280;2022-07-06T10:01:52;4.88;;;2.17;;
13079;SDS011;6606;49.154;9.280;2022-07-06T10:04:21;4.13;;;2.25;;
13079;SDS011;6606;49.154;9.280;2022-07-06T10:06:48;7.20;;;2.10;;
13079;SDS011;6606;49.154;9.280;2022-07-06T10:09:17;4.75;;;2.17;;
13079;SDS011;6606;49.154;9.280;2022-07-06T10:11:47;4.35;;;2.30;;
13079;SDS011;6606;49.154;9.280;2022-07-06T10:14:17;3.83;;;2.20;;
13079;SDS011;6606;49.154;9.280;2022-07-06T10:16:45;4.57;;;2.38;;
13079;SDS011;6606;49.154;9.280;2022-07-06T10:19:13;4.88;;;2.35;;
13079;SDS011;6606;49.154;9.280;2022-07-06T10:21:41;3.78;;;2.10;;
13079;SDS011;6606;49.154;9.280;2022-07-06T10:24:08;5.15;;;2.20;;
13079;SDS011;6606;49.154;9.280;2022-07-06T10:26:40;4.18;;;2.20;;
13079;SDS011;6606;49.154;9.280;2022-07-06T10:29:08;3.80;;;1.95;;
13079;SDS011;6606;49.154;9.280;2022-07-06T10:31:35;5.18;;;2.15;;
13079;SDS011;6606;49.154;9.280;2022-07-06T10:34:06;7.10;;;2.25;;
13079;SDS011;6606;49.154;9.280;2022-07-06T10:36:38;5.72;;;2.25;;
13079;SDS011;6606;49.154;9.280;2022-07-06T10:39:06;5.28;;;2.00;;
13079;SDS011;6606;49.154;9.280;2022-07-06T10:41:48;6.43;;;2.00;;
13079;SDS011;6606;49.154;9.280;2022-07-06T10:44:15;5.55;;;2.00;;
13079;SDS011;6606;49.154;9.280;2022-07-06T10:46:49;4.80;;;2.30;;
13079;SDS011;6606;49.154;9.280;2022-07-06T10:49:18;5.25;;;2.33;;
13079;SDS011;6606;49.154;9.280;2022-07-06T10:51:45;7.07;;;2.15;;
13079;SDS011;6606;49.154;9.280;2022-07-06T10:54:14;4.30;;;2.10;;
13079;SDS011;6606;49.154;9.280;2022-07-06T10:56:42;4.65;;;1.92;;
13079;SDS011;6606;49.154;9.280;2022-07-06T10:59:13;2.38;;;1.70;;
13079;SDS011;6606;49.154;9.280;2022-07-06T11:01:40;3.75;;;2.20;;
13079;SDS011;6606;49.154;9.280;2022-07-06T11:04:10;5.03;;;1.98;;
13079;SDS011;6606;49.154;9.280;2022-07-06T11:06:37;6.25;;;2.13;;
13079;SDS011;6606;49.154;9.280;2022-07-06T11:09:05;7.55;;;2.10;;
13079;SDS011;6606;49.154;9.280;2022-07-06T11:11:40;3.83;;;1.80;;
13079;SDS011;6606;49.154;9.280;2022-07-06T11:14:11;4.53;;;1.80;;
13079;SDS011;6606;49.154;9.280;2022-07-06T11:16:59;5.95;;;2.00;;
13079;SDS011;6606;49.154;9.280;2022-07-06T11:19:27;4.15;;;1.90;;
13079;SDS011;6606;49.154;9.280;2022-07-06T11:21:55;4.32;;;1.98;;
13079;SDS011;6606;49.154;9.280;2022-07-06T11:24:24;6.63;;;1.90;;
13079;SDS011;6606;49.154;9.280;2022-07-06T11:26:53;6.90;;;2.15;;
13079;SDS011;6606;49.154;9.280;2022-07-06T11:29:22;2.97;;;1.80;;
13079;SDS011;6606;49.154;9.280;2022-07-06T11:31:50;7.82;;;2.00;;
13079;SDS011;6606;49.154;9.280;2022-07-06T11:34:19;3.78;;;2.00;;
13079;SDS011;6606;49.154;9.280;2022-07-06T11:36:48;3.22;;;2.05;;
13079;SDS011;6606;49.154;9.280;2022-07-06T11:39:20;5.70;;;2.13;;
13079;SDS011;6606;49.154;9.280;2022-07-06T11:41:46;5.57;;;2.33;;
13079;SDS011;6606;49.154;9.280;2022-07-06T11:44:13;3.97;;;2.05;;
13079;SDS011;6606;49.154;9.280;2022-07-06T11:46:41;7.53;;;1.98;;
13079;SDS011;6606;49.154;9.280;2022-07-06T11:49:08;9.20;;;2.25;;
13079;SDS011;6606;49.154;9.280;2022-07-06T11:51:36;5.30;;;2.20;;
13079;SDS011;6606;49.154;9.280;2022-07-06T11:54:07;4.47;;;1.90;;
13079;SDS011;6606;49.154;9.280;2022-07-06T11:56:35;5.35;;;2.20;;
13079;SDS011;6606;49.154;9.280;2022-07-06T11:59:02;3.55;;;2.00;;
13079;SDS011;6606;49.154;9.280;2022-07-06T12:01:30;2.78;;;2.00;;
13079;SDS011;6606;49.154;9.280;2022-07-06T12:03:59;3.50;;;2.08;;
13079;SDS011;6606;49.154;9.280;2022-07-06T12:06:28;4.65;;;2.40;;
13079;SDS011;6606;49.154;9.280;2022-07-06T12:08:56;5.47;;;2.40;;
13079;SDS011;6606;49.154;9.280;2022-07-06T12:11:24;7.85;;;2.45;;
13079;SDS011;6606;49.154;9.280;2022-07-06T12:13:52;5.45;;;2.70;;
13079;SDS011;6606;49.154;9.280;2022-07-06T12:16:20;6.07;;;2.40;;
13079;SDS011;6606;49.154;9.280;2022-07-06T12:18:49;6.65;;;2.70;;
13079;SDS011;6606;49.154;9.280;2022-07-06T12:21:18;5.05;;;2.67;;
13079;SDS011;6606;49.154;9.280;2022-07-06T12:23:47;8.20;;;2.60;;
13079;SDS011;6606;49.154;9.280;2022-07-06T12:26:16;4.70;;;2.40;;
13079;SDS011;6606;49.154;9.280;2022-07-06T12:28:44;5.75;;;2.53;;
13079;SDS011;6606;49.154;9.280;2022-07-06T12:31:30;6.38;;;2.88;;
13079;SDS011;6606;49.154;9.280;2022-07-06T12:33:58;7.45;;;2.78;;
13079;SDS011;6606;49.154;9.280;2022-07-06T12:36:26;5.15;;;2.30;;
13079;SDS011;6606;49.154;9.280;2022-07-06T12:38:53;3.60;;;2.03;;
13079;SDS011;6606;49.154;9.280;2022-07-06T12:41:26;6.97;;;2.33;;
13079;SDS011;6606;49.154;9.280;2022-07-06T12:44:05;7.45;;;2.53;;
13079;SDS011;6606;49.154;9.280;2022-07-06T12:46:34;3.35;;;1.80;;
13079;SDS011;6606;49.154;9.280;2022-07-06T12:49:03;8.05;;;2.97;;
13079;SDS011;6606;49.154;9.280;2022-07-06T12:51:56;6.10;;;2.20;;
13079;SDS011;6606;49.154;9.280;2022-07-06T12:54:25;5.25;;;2.30;;
13079;SDS011;6606;49.154;9.280;2022-07-06T12:56:58;5.22;;;2.20;;
13079;SDS011;6606;49.154;9.280;2022-07-06T12:59:26;5.13;;;2.30;;
13079;SDS011;6606;49.154;9.280;2022-07-06T13:01:53;6.30;;;2.40;;
13079;SDS011;6606;49.154;9.280;2022-07-06T13:04:22;4.35;;;2.38;;
13079;SDS011;6606;49.154;9.280;2022-07-06T13:06:49;5.60;;;2.10;;
13079;SDS011;6606;49.154;9.280;2022-07-06T13:09:18;3.33;;;1.98;;
13079;SDS011;6606;49.154;9.280;2022-07-06T13:11:45;4.75;;;2.10;;
13079;SDS011;6606;49.154;9.280;2022-07-06T13:14:12;4.22;;;2.60;;
13079;SDS011;6606;49.154;9.280;2022-07-06T13:16:39;4.72;;;2.00;;
13079;SDS011;6606;49.154;9.280;2022-07-06T13:19:05;4.43;;;2.20;;
13079;SDS011;6606;49.154;9.280;2022-07-06T13:21:32;2.88;;;2.03;;
13079;SDS011;6606;49.154;9.280;2022-07-06T13:23:59;2.67;;;1.90;;
13079;SDS011;6606;49.154;9.280;2022-07-06T13:26:27;5.75;;;1.90;;
13079;SDS011;6606;49.154;9.280;2022-07-06T13:28:54;6.47;;;1.90;;
13079;SDS011;6606;49.154;9.280;2022-07-06T13:31:22;4.05;;;1.95;;
13079;SDS011;6606;49.154;9.280;2022-07-06T13:33:49;7.95;;;2.17;;
13079;SDS011;6606;49.154;9.280;2022-07-06T13:36:16;3.55;;;1.80;;
13079;SDS011;6606;49.154;9.280;2022-07-06T13:38:43;3.17;;;1.40;;
13079;SDS011;6606;49.154;9.280;2022-07-06T13:41:10;4.40;;;1.70;;
13079;SDS011;6606;49.154;9.280;2022-07-06T13:43:38;2.95;;;1.67;;
13079;SDS011;6606;49.154;9.280;2022-07-06T13:46:06;3.05;;;1.50;;
13079;SDS011;6606;49.154;9.280;2022-07-06T13:48:35;6.00;;;1.80;;
13079;SDS011;6606;49.154;9.280;2022-07-06T13:51:03;2.22;;;1.30;;
13079;SDS011;6606;49.154;9.280;2022-07-06T13:53:30;4.32;;;1.80;;
13079;SDS011;6606;49.154;9.280;2022-07-06T13:55:57;3.22;;;1.58;;
13079;SDS011;6606;49.154;9.280;2022-07-06T13:58:24;3.72;;;1.80;;
13079;SDS011;6606;49.154;9.280;2022-07-06T14:00:52;3.15;;;1.58;;
13079;SDS011;6606;49.154;9.280;2022-07-06T14:03:20;4.32;;;1.70;;
13079;SDS011;6606;49.154;9.280;2022-07-06T14:05:52;2.60;;;1.60;;
13079;SDS011;6606;49.154;9.280;2022-07-06T14:08:19;3.40;;;1.67;;
13079;SDS011;6606;49.154;9.280;2022-07-06T14:10:46;3.13;;;1.50;;
13079;SDS011;6606;49.154;9.280;2022-07-06T14:13:13;1.90;;;1.42;;
13079;SDS011;6606;49.154;9.280;2022-07-06T14:15:40;3.72;;;1.52;;
13079;SDS011;6606;49.154;9.280;2022-07-06T14:18:08;4.20;;;1.35;;
13079;SDS011;6606;49.154;9.280;2022-07-06T14:20:34;3.15;;;1.80;;
13079;SDS011;6606;49.154;9.280;2022-07-06T14:23:01;3.40;;;1.80;;
13079;SDS011;6606;49.154;9.280;2022-07-06T14:25:28;3.85;;;1.58;;
13079;SDS011;6606;49.154;9.280;2022-07-06T14:27:54;2.78;;;1.52;;
13079;SDS011;6606;49.154;9.280;2022-07-06T14:30:21;3.25;;;1.60;;
13079;SDS011;6606;49.154;9.280;2022-07-06T14:32:48;3.42;;;1.80;;
13079;SDS011;6606;49.154;9.280;2022-07-06T14:35:17;4.03;;;1.55;;
13079;SDS011;6606;49.154;9.280;2022-07-06T14:37:44;2.38;;;1.40;;
13079;SDS011;6606;49.154;9.280;2022-07-06T14:40:11;3.55;;;1.50;;
13079;SDS011;6606;49.154;9.280;2022-07-06T14:42:37;6.32;;;1.70;;
13079;SDS011;6606;49.154;9.280;2022-07-06T14:45:04;9.18;;;1.67;;
13079;SDS011;6606;49.154;9.280;2022-07-06T14:47:32;8.07;;;1.58;;
13079;SDS011;6606;49.154;9.280;2022-07-06T14:49:58;1.92;;;1.20;;
13079;SDS011;6606;49.154;9.280;2022-07-06T14:52:26;4.05;;;1.50;;
13079;SDS011;6606;49.154;9.280;2022-07-06T14:54:53;1.90;;;1.50;;
13079;SDS011;6606;49.154;9.280;2022-07-06T14:57:22;2.67;;;1.50;;
13079;SDS011;6606;49.154;9.280;2022-07-06T14:59:49;9.68;;;1.48;;
13079;SDS011;6606;49.154;9.280;2022-07-06T15:02:15;3.17;;;1.40;;
13079;SDS011;6606;49.154;9.280;2022-07-06T15:04:42;3.80;;;1.70;;
13079;SDS011;6606;49.154;9.280;2022-07-06T15:07:09;5.60;;;1.65;;